Time;durP1;ratioP1;P1;durP2;ratioP2;P2;SDS_P1;SDS_P2;PMS_P1;PMS_P2;Temp;Humidity;BMP_temperature;BMP_pressure;BME280_temperature;BME280_humidity;BME280_pressure;Samples;Min_cycle;Max_cycle;Signal;HPM_P1;HPM_P2
2022/08/09 00:02:23;;;;;;;;;12.00;10.67;;;;;22.08;45.24;101870.38;5035339;28;45431;-65
2022/08/09 00:04:49;;;;;;;;;10.00;10.00;;;;;22.27;45.16;101906.00;5036733;28;45505;-66
2022/08/09 00:07:15;;;;;;;;;9.67;7.67;;;;;22.00;45.57;101867.75;5038425;28;45577;-66
2022/08/09 00:09:40;;;;;;;;;10.00;10.00;;;;;22.01;45.74;101907.34;5037316;28;45479;-66
2022/08/09 00:12:06;;;;;;;;;10.00;10.00;;;;;22.06;45.78;101918.50;5018577;28;45478;-66
2022/08/09 00:14:31;;;;;;;;;10.00;9.67;;;;;21.54;45.74;101822.03;5033730;28;46612;-65
2022/08/09 00:16:57;;;;;;;;;12.33;10.00;;;;;22.03;45.66;101916.13;5034258;28;45372;-66
2022/08/09 00:19:22;;;;;;;;;12.33;10.00;;;;;21.71;46.28;101857.84;5027597;28;45340;-66
2022/08/09 00:21:48;;;;;;;;;9.33;8.33;;;;;21.82;46.42;101899.81;5037123;28;45404;-65
2022/08/09 00:24:13;;;;;;;;;8.00;8.00;;;;;21.91;46.49;101904.09;5034072;28;45390;-64
2022/08/09 00:26:38;;;;;;;;;9.67;9.67;;;;;21.58;46.40;101854.13;5033718;28;45483;-71
2022/08/09 00:29:04;;;;;;;;;9.67;9.67;;;;;21.37;46.64;101826.00;5036211;28;45421;-66
2022/08/09 00:31:30;;;;;;;;;7.67;7.00;;;;;21.93;46.40;101899.34;5037348;28;45292;-64
2022/08/09 00:33:55;;;;;;;;;6.33;6.33;;;;;21.94;46.32;101889.34;5037014;28;46800;-65
2022/08/09 00:36:22;;;;;;;;;8.00;8.00;;;;;21.66;46.69;101854.03;5035882;28;45336;-66
2022/08/09 00:38:47;;;;;;;;;8.67;8.67;;;;;21.77;46.49;101867.06;5025991;28;45397;-65
2022/08/09 00:41:13;;;;;;;;;11.00;8.33;;;;;21.82;47.03;101886.28;5037056;28;45319;-65
2022/08/09 00:43:39;;;;;;;;;8.00;8.00;;;;;20.83;47.18;101733.53;5037298;28;47533;-67
2022/08/09 00:46:07;;;;;;;;;5.67;5.67;;;;;21.67;46.90;101880.91;5035426;28;45324;-66
2022/08/09 00:48:32;;;;;;;;;7.67;7.67;;;;;21.73;46.99;101900.97;5036817;28;45471;-67
2022/08/09 00:51:02;;;;;;;;;10.00;8.33;;;;;21.71;47.36;101894.91;5018770;28;45598;-66
2022/08/09 00:53:28;;;;;;;;;8.33;6.33;;;;;21.62;47.20;101890.59;5037790;28;46934;-65
2022/08/09 00:55:53;;;;;;;;;8.00;8.00;;;;;21.66;46.83;101905.47;5034176;28;45443;-74
2022/08/09 00:58:18;;;;;;;;;6.00;6.00;;;;;21.56;47.65;101886.81;5033166;28;45531;-65
2022/08/09 01:00:44;;;;;;;;;7.67;6.00;;;;;21.55;47.58;101896.78;5020206;28;45405;-65
2022/08/09 01:03:15;;;;;;;;;9.67;9.67;;;;;21.01;48.09;101827.75;5036882;28;46699;-64
2022/08/09 01:05:52;;;;;;;;;9.33;9.33;;;;;21.40;48.27;101898.66;5018244;28;45607;-65
2022/08/09 01:08:55;;;;;;;;;6.00;6.00;;;;;21.41;48.20;101899.50;5036607;28;45368;-65
2022/08/09 01:11:45;;;;;;;;;7.00;7.00;;;;;21.45;48.23;101901.66;5035620;28;45448;-65
2022/08/09 01:14:32;;;;;;;;;11.67;8.00;;;;;21.42;48.30;101896.59;5037456;28;45669;-65
2022/08/09 01:17:18;;;;;;;;;6.33;6.33;;;;;21.29;48.90;101892.88;5021916;28;45448;-65
2022/08/09 01:20:05;;;;;;;;;7.00;7.00;;;;;21.34;48.68;101898.56;5036696;28;45285;-66
2022/08/09 01:22:45;;;;;;;;;8.00;8.00;;;;;21.18;49.28;101894.16;5034683;28;45629;-72
2022/08/09 01:25:18;;;;;;;;;6.67;4.00;;;;;20.89;49.83;101873.34;5022791;28;45291;-66
2022/08/09 01:27:48;;;;;;;;;8.67;7.00;;;;;20.90;49.84;101873.16;5031521;28;45656;-66
2022/08/09 01:30:15;;;;;;;;;8.00;7.33;;;;;21.07;49.87;101890.06;5034917;28;45532;-65
2022/08/09 01:32:45;;;;;;;;;10.67;8.00;;;;;20.89;50.38;101868.78;5026094;28;45342;-66
2022/08/09 01:35:44;;;;;;;;;7.67;7.67;;;;;20.90;50.60;101897.47;5036752;28;45461;-65
2022/08/09 01:38:14;;;;;;;;;8.00;8.00;;;;;20.82;50.64;101892.16;5030479;28;45645;-65
2022/08/09 01:40:43;;;;;;;;;8.67;6.67;;;;;20.69;50.15;101848.69;5036947;28;45558;-66
2022/08/09 01:43:09;;;;;;;;;7.33;6.67;;;;;20.51;50.50;101821.19;5035126;28;45546;-66
2022/08/09 01:45:35;;;;;;;;;10.67;8.00;;;;;20.96;50.29;101885.09;5015640;28;48130;-65
2022/08/09 01:48:01;;;;;;;;;7.00;6.67;;;;;20.86;50.64;101877.25;5026260;28;45498;-66
2022/08/09 01:50:29;;;;;;;;;5.67;5.67;;;;;20.38;50.82;101799.31;5036593;28;45534;-66
2022/08/09 01:52:57;;;;;;;;;7.67;7.67;;;;;20.87;50.77;101892.44;5001641;28;45558;-66
2022/08/09 01:55:24;;;;;;;;;10.33;9.67;;;;;20.89;50.43;101901.22;5033983;28;45305;-65
2022/08/09 01:57:54;;;;;;;;;4.33;4.33;;;;;20.81;51.02;101887.75;5032950;28;45614;-65
2022/08/09 02:00:19;;;;;;;;;9.33;7.67;;;;;20.81;50.89;101879.66;5033527;28;45550;-65
2022/08/09 02:02:48;;;;;;;;;4.00;4.00;;;;;20.79;51.11;101884.41;5036478;28;45538;-65
2022/08/09 02:05:18;;;;;;;;;8.33;8.33;;;;;20.76;51.48;101886.63;5035768;28;46569;-67
2022/08/09 02:07:47;;;;;;;;;6.33;6.33;;;;;20.54;51.97;101880.25;5034697;28;46525;-66
2022/08/09 02:10:28;;;;;;;;;5.00;5.00;;;;;20.61;52.03;101897.41;5035379;28;45765;-65
2022/08/09 02:12:55;;;;;;;;;6.33;6.33;;;;;20.04;51.87;101793.34;5034704;28;45481;-66
2022/08/09 02:15:24;;;;;;;;;5.00;5.00;;;;;20.63;51.75;101873.75;5036167;28;46582;-65
2022/08/09 02:17:52;;;;;;;;;9.67;9.33;;;;;19.96;51.89;101771.81;5033428;28;45669;-65
2022/08/09 02:20:18;;;;;;;;;6.00;6.00;;;;;20.59;51.90;101870.56;5034308;28;45387;-65
2022/08/09 02:22:58;;;;;;;;;6.00;6.00;;;;;20.61;51.97;101881.19;5034170;28;45403;-65
2022/08/09 02:25:33;;;;;;;;;7.67;7.67;;;;;20.52;52.09;101866.91;5034600;28;45443;-65
2022/08/09 02:28:08;;;;;;;;;7.00;7.00;;;;;20.66;51.98;101884.19;5026114;28;45491;-65
2022/08/09 02:30:42;;;;;;;;;8.00;8.00;;;;;20.45;52.32;101873.25;5035552;28;45483;-65
2022/08/09 02:33:13;;;;;;;;;7.33;6.33;;;;;20.46;52.51;101872.22;5035176;28;45414;-66
2022/08/09 02:35:40;;;;;;;;;9.00;8.00;;;;;20.51;52.34;101877.91;5034963;28;45957;-67
2022/08/09 02:38:09;;;;;;;;;7.67;7.00;;;;;20.43;52.70;101869.88;5034938;28;45494;-65
2022/08/09 02:40:37;;;;;;;;;8.33;8.33;;;;;20.50;52.54;101878.94;5033649;28;45360;-65
2022/08/09 02:43:07;;;;;;;;;9.67;7.00;;;;;20.34;52.85;101869.91;5035124;28;45529;-65
2022/08/09 02:45:36;;;;;;;;;6.00;6.00;;;;;20.35;53.10;101876.97;5036108;28;45669;-64
2022/08/09 02:48:07;;;;;;;;;7.67;7.67;;;;;20.28;52.93;101870.63;5035000;28;45463;-67
2022/08/09 02:50:40;;;;;;;;;8.00;7.00;;;;;20.40;53.08;101878.28;5019309;28;45258;-69
2022/08/09 02:53:15;;;;;;;;;9.00;9.00;;;;;20.30;53.39;101875.84;5033416;28;45496;-65
2022/08/09 02:55:44;;;;;;;;;9.00;7.00;;;;;20.27;53.00;101877.06;5033548;28;47676;-66
2022/08/09 02:58:11;;;;;;;;;9.33;9.33;;;;;20.23;53.27;101866.78;5034987;28;45494;-66
2022/08/09 03:00:39;;;;;;;;;9.67;8.33;;;;;20.22;53.54;101884.88;5017579;28;45526;-66
2022/08/09 03:03:06;;;;;;;;;7.00;7.00;;;;;20.16;53.95;101871.22;5032859;28;45563;-65
2022/08/09 03:05:31;;;;;;;;;8.33;8.33;;;;;20.15;53.71;101861.44;5035612;28;45594;-66
2022/08/09 03:07:59;;;;;;;;;7.00;7.00;;;;;19.57;53.50;101771.91;5039065;28;45275;-66
2022/08/09 03:10:26;;;;;;;;;6.00;5.00;;;;;20.08;53.92;101869.44;5039252;28;45313;-70
2022/08/09 03:12:53;;;;;;;;;11.00;6.67;;;;;20.04;53.83;101858.16;5038261;28;45516;-66
2022/08/09 03:15:20;;;;;;;;;8.33;8.33;;;;;20.13;53.69;101861.63;5038340;28;45522;-66
2022/08/09 03:17:47;;;;;;;;;8.00;8.00;;;;;20.17;53.72;101878.28;5036705;28;45509;-66
2022/08/09 03:20:13;;;;;;;;;5.67;5.67;;;;;20.06;53.65;101855.25;5036026;28;45899;-66
2022/08/09 03:22:43;;;;;;;;;7.00;7.00;;;;;20.00;53.62;101850.56;5037788;28;45466;-65
2022/08/09 03:25:10;;;;;;;;;7.00;7.00;;;;;19.96;54.07;101858.19;5027459;28;47347;-66
2022/08/09 03:27:36;;;;;;;;;8.33;8.33;;;;;20.08;53.99;101885.63;5035987;28;45578;-66
2022/08/09 03:30:03;;;;;;;;;9.67;9.67;;;;;19.98;54.42;101875.03;5037228;28;45546;-73
2022/08/09 03:32:30;;;;;;;;;9.00;8.33;;;;;20.09;54.01;101884.59;5036890;28;45439;-65
2022/08/09 03:34:56;;;;;;;;;9.00;9.00;;;;;20.10;53.98;101885.44;5038654;28;46947;-66
2022/08/09 03:37:22;;;;;;;;;7.00;7.00;;;;;19.95;54.52;101869.16;5038706;28;45422;-66
2022/08/09 03:39:48;;;;;;;;;9.33;8.00;;;;;19.91;54.82;101892.97;5037757;28;45700;-66
2022/08/09 03:42:13;;;;;;;;;9.33;8.00;;;;;19.33;54.96;101804.38;5035950;28;45419;-66
2022/08/09 03:44:39;;;;;;;;;8.33;8.33;;;;;19.78;55.09;101881.06;5034417;28;46345;-66
2022/08/09 03:47:04;;;;;;;;;5.67;5.67;;;;;19.84;55.12;101880.38;5038345;28;45360;-66
2022/08/09 03:49:32;;;;;;;;;8.67;8.33;;;;;19.85;54.93;101890.16;5037422;28;45534;-65
2022/08/09 03:51:59;;;;;;;;;9.00;8.67;;;;;19.72;54.53;101858.34;5021635;28;45420;-66
2022/08/09 03:54:29;;;;;;;;;7.00;7.00;;;;;19.67;55.73;101883.16;5037168;28;46469;-65
2022/08/09 03:56:56;;;;;;;;;8.67;6.67;;;;;19.67;55.42;101883.16;5036113;28;46119;-65
2022/08/09 03:59:22;;;;;;;;;7.33;7.33;;;;;19.65;55.88;101879.78;5037072;28;45487;-65
2022/08/09 04:01:52;;;;;;;;;9.00;8.00;;;;;19.56;55.94;101888.91;5033457;28;46544;-66
2022/08/09 04:04:17;;;;;;;;;8.00;8.00;;;;;19.61;55.77;101883.00;5036180;28;46413;-66
2022/08/09 04:06:43;;;;;;;;;8.67;7.67;;;;;19.61;55.58;101886.53;5018762;28;45565;-66
2022/08/09 04:09:08;;;;;;;;;9.00;7.33;;;;;19.44;56.11;101871.44;5038131;28;45404;-66
2022/08/09 04:11:49;;;;;;;;;11.00;10.00;;;;;19.54;55.90;101890.94;5026969;28;45515;-66
2022/08/09 04:14:19;;;;;;;;;9.33;9.33;;;;;19.53;56.05;101881.16;5033895;28;46717;-66
2022/08/09 04:16:44;;;;;;;;;6.00;6.00;;;;;19.37;55.79;101870.41;5036676;28;45551;-66
2022/08/09 04:19:12;;;;;;;;;11.00;10.00;;;;;19.49;55.94;101896.00;5014137;28;45525;-66
2022/08/09 04:21:38;;;;;;;;;7.00;4.67;;;;;19.33;56.38;101879.88;5038237;28;45305;-66
2022/08/09 04:24:03;;;;;;;;;7.67;7.67;;;;;19.42;56.25;101900.41;5018184;28;46284;-66
2022/08/09 04:26:29;;;;;;;;;11.67;10.00;;;;;19.43;56.26;101897.56;5032435;28;45665;-65
2022/08/09 04:28:54;;;;;;;;;8.33;8.33;;;;;19.43;56.25;101902.09;5031896;28;45673;-65
2022/08/09 04:31:19;;;;;;;;;5.67;5.67;;;;;19.33;56.63;101896.91;5033899;28;45491;-66
2022/08/09 04:33:45;;;;;;;;;11.33;9.33;;;;;19.42;56.52;101908.47;5037556;28;46569;-66
2022/08/09 04:36:10;;;;;;;;;9.00;9.00;;;;;19.07;56.92;101880.97;5038013;28;45504;-65
2022/08/09 04:38:35;;;;;;;;;10.00;8.67;;;;;19.02;57.21;101888.72;5036447;28;51175;-67
2022/08/09 04:41:01;;;;;;;;;9.00;9.00;;;;;18.50;57.38;101808.28;5035931;28;45340;-67
2022/08/09 04:43:26;;;;;;;;;7.67;7.67;;;;;19.23;56.98;101917.00;5035331;28;46919;-66
2022/08/09 04:45:51;;;;;;;;;11.33;10.33;;;;;19.17;57.10;101901.50;5035384;28;46556;-65
2022/08/09 04:48:16;;;;;;;;;7.33;7.33;;;;;19.17;57.10;101918.50;5037909;28;45344;-65
2022/08/09 04:50:43;;;;;;;;;7.33;7.33;;;;;19.13;56.91;101890.22;5036878;28;45547;-65
2022/08/09 04:53:09;;;;;;;;;9.67;9.67;;;;;18.91;56.68;101840.56;5034990;28;45771;-66
2022/08/09 04:55:36;;;;;;;;;9.67;9.00;;;;;19.35;56.89;101904.81;5035528;28;45467;-65
2022/08/09 04:58:02;;;;;;;;;9.00;7.67;;;;;19.47;56.17;101921.47;5033849;28;45399;-66
2022/08/09 05:00:28;;;;;;;;;8.67;7.33;;;;;19.48;56.17;101913.22;5034917;28;45552;-65
2022/08/09 05:02:55;;;;;;;;;8.00;8.00;;;;;19.38;56.37;101907.16;5035555;28;45725;-65
2022/08/09 05:05:21;;;;;;;;;7.33;7.33;;;;;19.39;56.15;101908.84;5037471;28;45373;-65
2022/08/09 05:07:47;;;;;;;;;8.33;8.33;;;;;19.42;56.40;101901.25;5035928;28;45443;-65
2022/08/09 05:10:13;;;;;;;;;11.67;11.00;;;;;19.26;56.62;101900.47;5035683;28;45455;-66
2022/08/09 05:12:39;;;;;;;;;15.00;10.33;;;;;18.92;56.51;101844.94;5014656;28;48799;-66
2022/08/09 05:15:05;;;;;;;;;10.00;9.67;;;;;19.31;56.74;101919.66;5034726;28;45395;-66
2022/08/09 05:17:30;;;;;;;;;9.33;8.33;;;;;19.24;56.98;101913.28;5037578;28;45463;-66
2022/08/09 05:19:56;;;;;;;;;7.00;7.00;;;;;19.18;56.99;101911.25;5036554;28;45439;-66
2022/08/09 05:22:21;;;;;;;;;10.00;9.00;;;;;19.14;57.33;101919.69;5036061;28;45851;-65
2022/08/09 05:24:46;;;;;;;;;11.33;9.00;;;;;19.20;57.27;101928.09;5036903;28;45313;-65
2022/08/09 05:27:12;;;;;;;;;7.00;7.00;;;;;19.18;57.10;101919.34;5034962;28;45718;-66
2022/08/09 05:29:37;;;;;;;;;9.00;9.00;;;;;19.25;57.08;101931.97;5036282;28;45860;-66
2022/08/09 05:32:03;;;;;;;;;9.33;9.33;;;;;19.08;57.16;101915.00;5017332;28;47187;-66
2022/08/09 05:34:30;;;;;;;;;10.00;9.33;;;;;19.13;57.41;101939.56;5034893;28;45317;-67
2022/08/09 05:36:56;;;;;;;;;8.33;8.33;;;;;19.21;57.21;101936.00;5037413;28;45377;-66
2022/08/09 05:39:23;;;;;;;;;9.00;9.00;;;;;19.19;57.04;101937.19;5037202;28;45361;-66
2022/08/09 05:41:48;;;;;;;;;12.00;9.33;;;;;19.24;57.12;101945.63;5033895;28;45736;-65
2022/08/09 05:44:14;;;;;;;;;8.33;8.33;;;;;19.15;57.15;101923.22;5032681;28;45632;-66
2022/08/09 05:46:40;;;;;;;;;10.67;9.00;;;;;19.21;56.90;101936.00;5037017;28;45380;-66
2022/08/09 05:49:05;;;;;;;;;9.67;9.33;;;;;19.18;57.06;101930.97;5034347;28;45380;-75
2022/08/09 05:51:31;;;;;;;;;6.00;6.00;;;;;19.02;57.36;101913.00;5035481;28;45694;-66
2022/08/09 05:53:56;;;;;;;;;8.67;8.67;;;;;19.22;57.34;101943.13;5035639;28;45522;-68
2022/08/09 05:56:21;;;;;;;;;7.00;7.00;;;;;19.22;56.81;101926.94;5035001;28;45449;-66
2022/08/09 05:58:47;;;;;;;;;8.67;8.67;;;;;19.34;56.41;101939.03;5036134;28;45200;-65
2022/08/09 06:01:13;;;;;;;;;8.67;8.33;;;;;19.02;56.15;101875.25;5033069;28;46497;-71
2022/08/09 06:03:38;;;;;;;;;10.33;10.00;;;;;18.98;56.06;101857.72;5034209;28;45615;-65
2022/08/09 06:06:03;;;;;;;;;8.00;8.00;;;;;19.41;56.24;101941.88;5035625;28;45414;-66
2022/08/09 06:08:29;;;;;;;;;11.00;10.00;;;;;19.19;56.61;101913.78;5023523;28;45489;-66
2022/08/09 06:10:55;;;;;;;;;9.00;9.00;;;;;19.35;56.49;101950.66;5018538;28;47561;-67
2022/08/09 06:13:21;;;;;;;;;12.33;10.00;;;;;19.34;56.76;101946.28;5033322;28;45357;-68
2022/08/09 06:15:51;;;;;;;;;10.00;10.00;;;;;19.34;56.30;101951.66;5034414;28;45416;-68
2022/08/09 06:18:16;;;;;;;;;5.33;5.33;;;;;19.37;56.84;101945.94;5036482;28;45557;-66
2022/08/09 06:20:42;;;;;;;;;10.67;10.67;;;;;19.52;56.13;101949.59;5035396;28;47254;-66
2022/08/09 06:23:07;;;;;;;;;9.00;9.00;;;;;19.67;55.93;101939.81;5033216;28;45317;-67
2022/08/09 06:25:33;;;;;;;;;12.67;9.00;;;;;20.30;53.92;101938.81;5036353;28;45380;-66
2022/08/09 06:27:58;;;;;;;;;7.33;7.33;;;;;20.87;51.66;101881.63;5034941;28;52253;-66
2022/08/09 06:30:24;;;;;;;;;10.00;10.00;;;;;21.91;49.56;101938.47;5037393;28;47249;-67
2022/08/09 06:32:51;;;;;;;;;12.33;12.33;;;;;22.64;47.48;101940.13;5035510;28;45542;-67
2022/08/09 06:35:17;;;;;;;;;11.33;10.33;;;;;23.44;45.99;101968.75;5035760;28;45572;-67
2022/08/09 06:37:42;;;;;;;;;10.33;7.33;;;;;24.00;43.68;101947.75;5034079;28;45527;-67
2022/08/09 06:40:08;;;;;;;;;8.33;8.33;;;;;24.36;42.93;101957.50;5016255;28;48038;-68
2022/08/09 06:42:34;;;;;;;;;11.67;10.00;;;;;24.68;42.98;101958.63;5017536;28;45474;-67
2022/08/09 06:45:00;;;;;;;;;6.00;6.00;;;;;25.24;41.51;101947.34;5037041;28;45574;-66
2022/08/09 06:47:25;;;;;;;;;7.67;7.00;;;;;26.02;39.32;101954.44;5034495;28;45586;-70
2022/08/09 06:49:52;;;;;;;;;11.67;9.67;;;;;26.40;38.38;101947.34;5038268;28;46912;-67
2022/08/09 06:52:17;;;;;;;;;10.00;9.00;;;;;26.90;37.16;101945.50;5036063;28;45487;-67
2022/08/09 06:54:43;;;;;;;;;9.00;9.00;;;;;26.11;37.09;101816.03;5033948;28;45459;-67
2022/08/09 06:57:10;;;;;;;;;10.33;9.00;;;;;27.11;36.31;101881.50;5034507;28;45627;-69
2022/08/09 06:59:36;;;;;;;;;7.33;7.33;;;;;28.04;35.54;101958.63;5037256;28;46659;-68
2022/08/09 07:02:02;;;;;;;;;5.00;5.00;;;;;28.28;34.25;101958.75;5033967;28;45523;-67
2022/08/09 07:04:27;;;;;;;;;7.00;7.00;;;;;28.63;34.04;101959.69;5035240;28;45524;-67
2022/08/09 07:06:53;;;;;;;;;8.33;6.00;;;;;28.71;33.50;101961.25;5020959;28;45545;-66
2022/08/09 07:09:18;;;;;;;;;7.00;7.00;;;;;28.71;33.48;101958.50;5033831;28;46676;-70
2022/08/09 07:11:44;;;;;;;;;7.00;6.00;;;;;28.62;33.15;101936.09;5038163;28;45505;-67
2022/08/09 07:14:13;;;;;;;;;7.67;6.00;;;;;28.88;33.27;101958.69;5035430;28;45372;-68
2022/08/09 07:16:38;;;;;;;;;8.00;6.67;;;;;28.90;32.41;101960.13;5031577;28;45391;-67
2022/08/09 07:19:04;;;;;;;;;7.67;6.33;;;;;29.21;32.71;101966.31;5038019;28;45967;-69
2022/08/09 07:21:30;;;;;;;;;9.00;9.00;;;;;29.72;32.06;101973.78;5028119;28;45534;-69
2022/08/09 07:23:55;;;;;;;;;8.67;8.67;;;;;29.48;31.02;101871.63;5033233;28;45623;-69
2022/08/09 07:26:20;;;;;;;;;6.00;6.00;;;;;30.13;30.77;101945.31;5033000;28;45277;-68
2022/08/09 07:28:46;;;;;;;;;8.00;8.00;;;;;30.75;30.26;101971.97;5034033;28;46435;-69
2022/08/09 07:31:11;;;;;;;;;6.33;6.33;;;;;30.68;29.63;101897.19;5029701;28;46111;-68
2022/08/09 07:33:36;;;;;;;;;8.67;8.67;;;;;31.38;28.81;101946.03;5036495;28;45544;-66
2022/08/09 07:36:02;;;;;;;;;9.00;9.00;;;;;32.06;27.25;101958.50;5032844;28;45499;-67
2022/08/09 07:38:27;;;;;;;;;8.00;8.00;;;;;32.25;27.19;101957.06;5034989;28;46387;-67
2022/08/09 07:40:53;;;;;;;;;8.00;7.33;;;;;32.78;26.83;101944.31;5033037;28;45387;-75
2022/08/09 07:46:40;;;;;;;;;8.00;7.33;;;;;33.06;26.21;101968.00;5033060;28;45331;-68
2022/08/09 07:49:06;;;;;;;;;8.33;6.00;;;;;33.58;25.92;101970.81;5038214;28;45505;-67
2022/08/09 07:51:32;;;;;;;;;7.33;7.33;;;;;33.81;25.28;101957.66;5028893;28;45614;-67
2022/08/09 07:53:57;;;;;;;;;6.00;5.33;;;;;33.83;24.76;101955.44;5022646;28;45499;-67
2022/08/09 07:56:24;;;;;;;;;8.00;6.00;;;;;33.68;25.04;101958.19;5024154;28;45446;-68
2022/08/09 07:58:50;;;;;;;;;6.67;6.67;;;;;33.88;25.62;101961.03;5034069;28;45751;-68
2022/08/09 08:01:15;;;;;;;;;7.00;7.00;;;;;34.26;24.25;101925.81;5039833;28;45450;-67
2022/08/09 08:03:41;;;;;;;;;7.67;7.67;;;;;34.41;23.99;101961.72;5020626;28;45437;-67
2022/08/09 08:06:07;;;;;;;;;6.67;5.67;;;;;33.99;25.06;101954.44;5038478;28;45308;-68
2022/08/09 08:08:32;;;;;;;;;7.00;7.00;;;;;34.04;24.88;101962.75;5019290;28;47040;-67
2022/08/09 08:10:57;;;;;;;;;7.67;6.67;;;;;34.12;24.13;101970.50;5035807;28;45476;-68
2022/08/09 08:13:23;;;;;;;;;8.00;6.00;;;;;34.52;24.33;101963.41;5038866;28;45766;-68
2022/08/09 08:15:48;;;;;;;;;9.67;7.67;;;;;34.68;23.63;101948.50;5040583;28;45336;-67
2022/08/09 08:18:14;;;;;;;;;7.33;7.33;;;;;34.32;23.28;101903.44;5042492;28;46491;-67
2022/08/09 08:20:39;;;;;;;;;3.00;3.00;;;;;34.67;23.45;101970.88;5020489;28;45500;-68
2022/08/09 08:23:05;;;;;;;;;7.00;7.00;;;;;34.37;23.60;101961.44;5036694;28;45523;-67
2022/08/09 08:25:30;;;;;;;;;8.00;8.00;;;;;34.30;23.81;101969.16;5029662;28;45609;-66
2022/08/09 08:27:56;;;;;;;;;9.00;9.00;;;;;34.65;23.91;101973.91;5038826;28;46659;-67
2022/08/09 08:30:21;;;;;;;;;7.33;6.33;;;;;34.43;23.51;101871.16;5037313;28;45190;-66
2022/08/09 08:32:47;;;;;;;;;8.00;7.00;;;;;34.66;23.36;101970.06;5038691;28;45530;-67
2022/08/09 08:35:12;;;;;;;;;7.00;7.00;;;;;34.93;22.91;101980.84;5042090;28;45590;-66
2022/08/09 08:37:38;;;;;;;;;7.67;6.00;;;;;34.62;23.88;101984.66;5029839;28;48004;-68
2022/08/09 08:40:04;;;;;;;;;6.33;6.33;;;;;34.89;23.88;101967.88;5051040;28;45360;-68
2022/08/09 08:42:30;;;;;;;;;6.67;6.67;;;;;35.14;22.91;101953.16;5036031;28;45593;-68
2022/08/09 08:44:58;;;;;;;;;8.67;7.67;;;;;35.52;22.54;101958.06;5022691;28;45709;-67
2022/08/09 08:47:26;;;;;;;;;6.67;6.67;;;;;35.66;22.46;101966.59;5040074;28;46951;-68
2022/08/09 08:49:53;;;;;;;;;3.00;3.00;;;;;35.55;21.81;101942.84;5036462;28;45399;-68
2022/08/09 08:52:24;;;;;;;;;8.00;7.00;;;;;35.82;22.08;101959.84;5036671;28;45396;-67
2022/08/09 08:54:53;;;;;;;;;7.00;7.00;;;;;36.12;21.37;101958.91;5038104;28;45218;-68
2022/08/09 08:57:20;;;;;;;;;6.00;6.00;;;;;35.87;21.62;101945.22;5036884;28;46846;-67
2022/08/09 08:59:47;;;;;;;;;7.00;7.00;;;;;36.25;21.46;101961.03;5036764;28;45279;-67
2022/08/09 09:02:22;;;;;;;;;6.00;6.00;;;;;35.92;21.65;101932.19;5035416;28;45409;-69
2022/08/09 09:04:50;;;;;;;;;7.33;5.00;;;;;36.01;21.41;101956.47;5018804;28;45389;-68
2022/08/09 09:07:16;;;;;;;;;6.67;6.00;;;;;36.18;21.43;101946.69;5037092;28;46849;-66
2022/08/09 09:09:45;;;;;;;;;7.00;7.00;;;;;35.92;21.25;101965.38;5037629;28;45714;-68
2022/08/09 09:12:12;;;;;;;;;6.00;6.00;;;;;35.99;22.13;101958.69;5036628;28;45526;-69
2022/08/09 09:14:38;;;;;;;;;8.00;8.00;;;;;36.42;21.29;101968.13;5037427;28;45238;-68
2022/08/09 09:17:04;;;;;;;;;7.00;7.00;;;;;36.61;21.01;101968.28;5037334;28;45677;-67
2022/08/09 09:19:29;;;;;;;;;7.33;5.00;;;;;36.97;20.35;101943.88;5030902;28;45257;-68
2022/08/09 09:21:55;;;;;;;;;6.67;6.67;;;;;37.80;19.51;101948.22;5025139;28;45510;-74
2022/08/09 09:24:27;;;;;;;;;7.33;6.33;;;;;37.90;18.70;101870.34;5031971;28;46131;-64
2022/08/09 09:26:55;;;;;;;;;6.00;6.00;;;;;39.06;17.82;101950.13;5033337;28;45918;-66
2022/08/09 09:29:31;;;;;;;;;6.00;5.00;;;;;39.79;17.40;101954.75;5036840;28;45497;-65
2022/08/09 09:31:57;;;;;;;;;6.67;6.00;;;;;39.64;17.59;101952.31;5035719;28;45578;-66
2022/08/09 09:34:23;;;;;;;;;7.33;7.33;;;;;40.50;16.46;101957.91;5030296;28;45916;-67
2022/08/09 09:36:49;;;;;;;;;10.67;9.67;;;;;41.07;15.89;101891.97;5025408;28;46447;-66
2022/08/09 09:39:16;;;;;;;;;6.00;6.00;;;;;42.13;15.20;101942.97;5027440;28;45505;-67
2022/08/09 09:41:42;;;;;;;;;6.00;5.33;;;;;42.89;14.73;101923.63;5019555;28;45220;-66
2022/08/09 09:44:07;;;;;;;;;6.33;6.33;;;;;42.86;14.31;101931.84;5030217;28;45391;-66
2022/08/09 09:46:37;;;;;;;;;5.67;5.67;;;;;42.85;14.71;101939.41;5032709;28;45916;-67
2022/08/09 09:49:06;;;;;;;;;5.67;5.67;;;;;43.41;13.89;101940.19;5034770;28;45394;-66
2022/08/09 09:51:33;;;;;;;;;7.00;6.00;;;;;42.92;13.80;101925.75;5036710;28;45629;-68
2022/08/09 09:54:09;;;;;;;;;5.67;5.67;;;;;43.30;14.27;101938.94;5032807;28;45400;-66
2022/08/09 09:56:38;;;;;;;;;5.67;5.67;;;;;43.54;13.55;101921.50;5034229;28;46736;-69
2022/08/09 09:59:03;;;;;;;;;4.33;4.33;;;;;43.67;13.74;101906.44;5036466;28;45272;-66
2022/08/09 10:01:29;;;;;;;;;7.00;7.00;;;;;43.75;13.18;101919.56;5037087;28;45299;-67
2022/08/09 10:03:55;;;;;;;;;4.00;4.00;;;;;44.03;13.44;101919.81;5036838;28;45348;-68
2022/08/09 10:06:20;;;;;;;;;8.67;7.67;;;;;43.57;12.93;101918.84;5036499;28;45536;-67
2022/08/09 10:08:48;;;;;;;;;6.00;6.00;;;;;42.46;14.36;101926.50;5036724;28;45385;-66
2022/08/09 10:11:18;;;;;;;;;6.33;6.33;;;;;41.40;14.52;101925.91;5037219;28;45285;-67
2022/08/09 10:13:44;;;;;;;;;5.67;5.67;;;;;39.92;15.96;101914.09;5036232;28;45428;-66
2022/08/09 10:16:10;;;;;;;;;7.00;7.00;;;;;38.89;17.03;101925.69;5035210;28;46773;-69
2022/08/09 10:18:36;;;;;;;;;6.33;6.33;;;;;37.66;18.26;101909.25;5036602;28;45410;-68
2022/08/09 10:21:06;;;;;;;;;8.00;8.00;;;;;36.98;19.45;101938.03;5036408;28;45453;-67
2022/08/09 10:23:32;;;;;;;;;8.00;7.67;;;;;36.40;19.94;101931.59;5036910;28;45278;-68
2022/08/09 10:25:57;;;;;;;;;8.33;8.00;;;;;35.05;21.13;101834.06;5034830;28;45517;-67
2022/08/09 10:28:23;;;;;;;;;7.33;7.33;;;;;35.14;21.55;101914.47;5036683;28;45441;-68
2022/08/09 10:30:48;;;;;;;;;6.67;6.67;;;;;34.26;22.41;101898.19;5018410;28;45405;-68
2022/08/09 10:33:15;;;;;;;;;9.33;9.33;;;;;33.73;23.07;101916.81;5036768;28;45447;-69
2022/08/09 10:35:41;;;;;;;;;8.67;8.67;;;;;32.79;23.96;101844.06;5036517;28;46584;-65
2022/08/09 10:38:06;;;;;;;;;8.00;8.00;;;;;32.98;23.94;101896.84;5036460;28;45416;-66
2022/08/09 10:40:34;;;;;;;;;10.00;9.33;;;;;32.68;24.60;101922.22;5036462;28;45305;-67
2022/08/09 10:42:59;;;;;;;;;8.00;8.00;;;;;32.38;25.16;101922.78;5019302;28;45183;-67
2022/08/09 10:45:28;;;;;;;;;8.00;8.00;;;;;31.96;25.66;101897.84;5036179;28;46406;-68
2022/08/09 10:48:10;;;;;;;;;9.00;8.00;;;;;31.81;25.68;101922.44;5034701;28;45985;-67
2022/08/09 10:51:08;;;;;;;;;9.67;8.33;;;;;31.09;26.27;101893.97;5035164;28;45315;-67
2022/08/09 10:53:55;;;;;;;;;9.67;9.67;;;;;30.79;27.06;101909.97;5036622;28;45412;-68
2022/08/09 10:56:27;;;;;;;;;8.67;7.33;;;;;30.65;27.37;101914.16;5035989;28;46200;-65
2022/08/09 10:58:58;;;;;;;;;9.00;9.00;;;;;30.28;27.50;101906.38;5036106;28;45514;-67
2022/08/09 11:01:32;;;;;;;;;7.67;7.67;;;;;30.19;27.35;101910.56;5018314;28;45543;-67
2022/08/09 11:04:19;;;;;;;;;8.67;8.00;;;;;30.20;27.37;101901.25;5030990;28;45577;-68
2022/08/09 11:06:46;;;;;;;;;7.33;7.00;;;;;30.07;27.46;101901.59;5024231;28;46730;-68
2022/08/09 11:09:16;;;;;;;;;6.00;6.00;;;;;29.95;27.60;101899.69;5034572;28;45536;-67
2022/08/09 11:11:54;;;;;;;;;7.67;7.00;;;;;29.80;27.63;101904.88;5035043;28;45478;-67
2022/08/09 11:14:37;;;;;;;;;11.67;9.00;;;;;29.68;27.50;101904.09;5034193;28;45226;-67
2022/08/09 11:17:23;;;;;;;;;53.33;44.00;;;;;29.45;28.12;101909.59;5025634;28;46378;-68
2022/08/09 11:20:06;;;;;;;;;73.25;57.00;;;;;28.97;28.53;101847.72;5018649;28;45498;-68
2022/08/09 11:22:41;;;;;;;;;138.75;121.25;;;;;29.28;28.86;101907.59;5028488;28;45590;-68
2022/08/09 11:25:11;;;;;;;;;22.75;20.25;;;;;29.19;28.84;101898.06;5035288;28;45628;-66
2022/08/09 11:27:45;;;;;;;;;90.00;74.25;;;;;29.22;28.23;101903.06;5038499;28;45843;-69
2022/08/09 11:30:34;;;;;;;;;26.00;21.00;;;;;29.14;29.72;101881.53;5038653;28;45381;-68